Time;durP1;ratioP1;P1;durP2;ratioP2;P2;SDS_P1;SDS_P2;PMS_P1;PMS_P2;Temp;Humidity;BMP_temperature;BMP_pressure;BME280_temperature;BME280_humidity;BME280_pressure;Samples;Min_cycle;Max_cycle;Signal;HPM_P1;HPM_P2
2022/11/20 00:00:48;;;;;;;18.55;10.35;;;;;;;3.78;48.14;101404.50;7397636;19;20008;-66
2022/11/20 00:03:14;;;;;;;19.95;10.80;;;;;;;3.79;47.85;101408.03;7400367;19;20003;-65
2022/11/20 00:05:40;;;;;;;17.08;10.63;;;;;;;3.73;48.29;101401.06;7399168;19;20018;-65
2022/11/20 00:08:06;;;;;;;17.70;10.10;;;;;;;3.64;48.50;101398.94;7399085;19;20013;-64
2022/11/20 00:10:32;;;;;;;17.48;10.13;;;;;;;3.59;48.47;101404.38;7394946;19;20498;-65
2022/11/20 00:12:58;;;;;;;19.98;10.63;;;;;;;3.74;48.14;101400.78;7400490;19;20002;-65
2022/11/20 00:15:24;;;;;;;18.85;10.18;;;;;;;3.79;48.01;101395.34;7400245;19;20007;-62
2022/11/20 00:17:50;;;;;;;18.90;10.48;;;;;;;3.78;48.18;101390.22;7397798;19;20003;-62
2022/11/20 00:20:16;;;;;;;20.02;10.88;;;;;;;3.77;48.05;101402.91;7398690;19;20013;-62
2022/11/20 00:22:41;;;;;;;19.75;11.38;;;;;;;3.82;47.94;101393.97;7400229;19;20002;-62
2022/11/20 00:25:07;;;;;;;19.50;10.93;;;;;;;3.59;48.68;101392.78;7398625;19;20006;-63
2022/11/20 00:27:33;;;;;;;18.27;10.45;;;;;;;3.73;48.54;101398.34;7396025;19;20037;-61
2022/11/20 00:29:58;;;;;;;21.50;10.77;;;;;;;3.74;48.40;101389.97;7393033;19;20011;-61
2022/11/20 00:32:24;;;;;;;17.13;10.15;;;;;;;3.75;48.55;101396.97;7398164;19;19999;-61
2022/11/20 00:34:50;;;;;;;20.13;11.43;;;;;;;3.52;49.12;101391.19;7397423;19;19994;-61
2022/11/20 00:37:15;;;;;;;19.70;10.45;;;;;;;3.55;49.23;101403.31;7395756;19;19994;-61
2022/11/20 00:39:41;;;;;;;19.15;10.52;;;;;;;3.57;49.20;101395.75;7395342;19;19991;-61
2022/11/20 00:42:07;;;;;;;16.35;9.80;;;;;;;3.45;49.53;101395.25;7397530;19;20506;-60
2022/11/20 00:44:32;;;;;;;19.63;10.18;;;;;;;3.37;49.63;101391.25;7395425;19;19998;-60
2022/11/20 00:46:58;;;;;;;18.17;10.32;;;;;;;3.35;49.94;101383.41;7396293;19;20019;-60
2022/11/20 00:49:24;;;;;;;19.20;10.45;;;;;;;3.50;49.44;101393.38;7395753;19;20003;-61
2022/11/20 00:51:49;;;;;;;17.67;10.60;;;;;;;3.45;49.54;101385.28;7395723;19;19998;-60
2022/11/20 00:54:15;;;;;;;17.75;10.43;;;;;;;3.46;49.71;101384.19;7396073;19;19995;-60
2022/11/20 00:56:41;;;;;;;16.63;10.40;;;;;;;3.48;49.70;101387.41;7394880;19;20006;-61
2022/11/20 00:59:09;;;;;;;17.80;10.60;;;;;;;3.55;49.56;101379.00;7395876;19;19998;-60
2022/11/20 01:01:36;;;;;;;20.27;10.40;;;;;;;3.62;49.28;101381.41;7397493;19;19987;-60
2022/11/20 01:04:02;;;;;;;19.90;10.05;;;;;;;3.54;49.64;101380.13;7396302;19;20349;-60
2022/11/20 01:06:30;;;;;;;19.75;10.70;;;;;;;3.58;49.45;101381.16;7395198;19;20009;-60
2022/11/20 01:08:58;;;;;;;21.30;11.00;;;;;;;3.60;49.44;101378.97;7394896;19;20009;-60
2022/11/20 01:11:29;;;;;;;17.80;10.57;;;;;;;3.51;49.37;101381.47;7396716;19;19998;-60
2022/11/20 01:13:57;;;;;;;19.88;10.60;;;;;;;3.47;49.53;101385.81;7396639;19;19998;-62
2022/11/20 01:16:31;;;;;;;18.25;10.15;;;;;;;3.53;49.50;101383.88;7395829;19;20006;-61
2022/11/20 01:18:59;;;;;;;19.27;10.32;;;;;;;3.52;49.34;101376.88;7395504;19;20454;-61
2022/11/20 01:21:36;;;;;;;20.52;10.48;;;;;;;3.42;49.17;101371.50;7394054;19;19995;-61
2022/11/20 01:24:04;;;;;;;18.85;10.25;;;;;;;3.38;49.07;101370.44;7395819;19;20003;-61
2022/11/20 01:26:32;;;;;;;18.90;10.70;;;;;;;3.40;49.06;101376.38;7394620;19;20010;-61
2022/11/20 01:28:59;;;;;;;21.58;11.52;;;;;;;3.46;48.83;101368.00;7395213;19;20027;-61
2022/11/20 01:31:31;;;;;;;19.05;10.52;;;;;;;3.52;48.78;101360.69;7393090;19;20430;-61
2022/11/20 01:33:59;;;;;;;20.65;10.77;;;;;;;3.68;48.34;101358.69;7393582;19;20009;-61
2022/11/20 01:36:28;;;;;;;19.17;10.60;;;;;;;3.66;48.38;101356.25;7394328;19;19997;-65
2022/11/20 01:38:57;;;;;;;18.15;10.75;;;;;;;3.54;48.72;101355.81;7394710;19;20017;-63
2022/11/20 01:44:14;;;;;;;20.30;11.32;;;;;;;3.65;48.20;101348.44;7395239;19;20009;-63
2022/11/20 01:46:50;;;;;;;19.75;10.85;;;;;;;3.64;47.92;101353.03;7394230;19;20050;-63
2022/11/20 01:49:22;;;;;;;19.38;10.43;;;;;;;3.53;48.42;101352.28;7392722;19;20015;-64
2022/11/20 01:51:55;;;;;;;19.35;10.55;;;;;;;3.67;47.99;101349.78;7396000;19;19991;-62
2022/11/20 01:54:47;;;;;;;19.15;10.73;;;;;;;3.54;48.30;101336.94;7393482;19;20002;-62
2022/11/20 01:57:13;;;;;;;16.35;10.10;;;;;;;3.60;48.17;101341.19;7391694;19;20008;-62
2022/11/20 01:59:44;;;;;;;21.38;10.65;;;;;;;3.51;48.29;101338.28;7393901;19;19999;-62
2022/11/20 02:02:10;;;;;;;19.13;10.88;;;;;;;3.49;48.21;101339.66;7394542;19;20006;-61
2022/11/20 02:04:36;;;;;;;16.38;9.80;;;;;;;3.49;48.50;101328.84;7394539;19;20457;-61
2022/11/20 02:07:04;;;;;;;17.10;9.70;;;;;;;3.54;48.33;101334.22;7394501;19;19998;-62
2022/11/20 02:09:30;;;;;;;20.98;11.07;;;;;;;3.55;48.29;101327.72;7391948;19;20003;-61
2022/11/20 02:12:04;;;;;;;19.48;11.23;;;;;;;3.64;48.05;101322.56;7394622;19;19991;-61
2022/11/20 02:14:30;;;;;;;;;;;;;;;3.49;48.29;101318.06;7394636;19;20065;-61
2022/11/20 02:17:02;;;;;;;19.65;11.20;;;;;;;3.62;47.82;101317.44;7392407;19;19910;-61
2022/11/20 02:19:31;;;;;;;21.60;10.63;;;;;;;3.73;47.70;101314.66;7392999;19;20421;-61
2022/11/20 02:22:17;;;;;;;18.40;10.13;;;;;;;3.66;47.65;101307.66;7390447;19;20074;-61
2022/11/20 02:24:44;;;;;;;18.77;10.70;;;;;;;3.62;47.69;101312.03;7394202;19;20106;-61
2022/11/20 02:27:14;;;;;;;18.17;10.15;;;;;;;3.47;48.04;101314.81;7392561;19;20504;-61
2022/11/20 02:29:53;;;;;;;19.38;11.02;;;;;;;3.52;47.77;101309.41;7392218;19;20534;-62
2022/11/20 02:32:31;;;;;;;18.55;9.88;;;;;;;3.48;47.97;101316.44;7393036;19;20077;-61
2022/11/20 02:34:57;;;;;;;18.30;10.18;;;;;;;3.60;47.56;101314.19;7392248;19;20065;-62
2022/11/20 02:37:32;;;;;;;18.92;10.98;;;;;;;3.61;47.63;101321.22;7391261;19;20467;-60
2022/11/20 02:39:58;;;;;;;18.20;10.23;;;;;;;3.58;47.59;101310.16;7392767;19;20018;-61
2022/11/20 02:42:24;;;;;;;19.45;10.32;;;;;;;3.62;47.60;101312.03;7392589;19;19999;-61
2022/11/20 02:44:49;;;;;;;21.77;11.02;;;;;;;3.64;47.52;101309.84;7394180;19;19998;-61
2022/11/20 02:47:15;;;;;;;20.08;10.38;;;;;;;3.58;47.57;101300.16;7391781;19;20010;-61
2022/11/20 02:49:41;;;;;;;19.38;11.02;;;;;;;3.60;47.58;101303.38;7391580;19;19998;-61
2022/11/20 02:52:06;;;;;;;18.65;9.80;;;;;;;3.59;47.88;101296.41;7392661;19;20017;-61
2022/11/20 02:54:32;;;;;;;19.55;10.77;;;;;;;3.70;47.56;101310.59;7392663;19;20398;-61
2022/11/20 02:56:58;;;;;;;18.30;10.07;;;;;;;3.75;47.21;101305.16;7389377;19;20013;-61
2022/11/20 02:59:23;;;;;;;18.45;10.02;;;;;;;3.75;47.54;101301.66;7391194;19;20455;-61
2022/11/20 03:01:49;;;;;;;17.55;9.65;;;;;;;3.66;47.51;101307.66;7390600;19;20010;-61
2022/11/20 03:04:15;;;;;;;19.42;10.00;;;;;;;3.57;47.75;101300.44;7392805;19;20486;-61
2022/11/20 03:06:41;;;;;;;19.02;9.65;;;;;;;3.58;47.30;101297.47;7390822;19;19995;-61
2022/11/20 03:09:06;;;;;;;18.45;9.23;;;;;;;3.69;47.34;101300.91;7391609;19;19998;-61
2022/11/20 03:11:32;;;;;;;20.13;10.07;;;;;;;3.59;47.41;101290.19;7390330;19;20009;-61
2022/11/20 03:14:02;;;;;;;20.02;9.52;;;;;;;3.60;47.40;101287.19;7392424;19;20058;-61
2022/11/20 03:16:28;;;;;;;18.80;9.68;;;;;;;3.63;47.43;101275.84;7391465;19;20003;-60
2022/11/20 03:18:54;;;;;;;17.92;9.20;;;;;;;3.59;47.50;101285.59;7392517;19;20012;-59
2022/11/20 03:21:19;;;;;;;17.15;9.27;;;;;;;3.75;47.14;101280.88;7392219;19;20002;-59
2022/11/20 03:23:45;;;;;;;17.55;9.60;;;;;;;3.80;47.19;101277.31;7392077;19;20373;-59
2022/11/20 03:26:14;;;;;;;16.27;8.75;;;;;;;3.87;47.08;101269.69;7389463;19;19995;-59
2022/11/20 03:28:40;;;;;;;18.38;9.63;;;;;;;3.83;47.09;101263.25;7391964;19;20328;-60
2022/11/20 03:31:11;;;;;;;17.45;9.38;;;;;;;3.74;47.38;101259.53;7389629;19;20026;-60
2022/11/20 03:33:38;;;;;;;18.15;9.65;;;;;;;3.79;47.32;101267.63;7389113;19;20010;-60
2022/11/20 03:36:05;;;;;;;17.05;9.10;;;;;;;3.78;47.19;101266.00;7392075;19;20466;-60
2022/11/20 03:38:32;;;;;;;18.65;8.60;;;;;;;3.81;47.24;101263.53;7386833;19;20465;-60
2022/11/20 03:41:00;;;;;;;17.08;9.30;;;;;;;3.81;47.31;101265.44;7391292;19;20011;-60
2022/11/20 03:43:26;;;;;;;16.15;8.75;;;;;;;3.84;47.27;101260.28;7391658;19;20006;-60
2022/11/20 03:45:52;;;;;;;17.98;9.38;;;;;;;3.87;47.15;101259.72;7391941;19;20007;-60
2022/11/20 03:48:18;;;;;;;15.98;9.27;;;;;;;3.98;47.00;101255.00;7388579;19;20332;-60
2022/11/20 03:50:49;;;;;;;18.02;9.30;;;;;;;3.96;47.13;101251.78;7389595;19;19998;-60
2022/11/20 03:53:16;;;;;;;16.15;8.95;;;;;;;3.84;47.26;101241.38;7390516;19;20037;-61
2022/11/20 03:55:42;;;;;;;17.17;8.88;;;;;;;3.79;47.40;101244.13;7390073;19;20010;-64
2022/11/20 03:58:08;;;;;;;19.27;9.23;;;;;;;3.82;47.33;101240.03;7388540;19;20003;-64
2022/11/20 04:00:35;;;;;;;18.52;9.07;;;;;;;3.85;47.47;101236.75;7389150;19;20006;-64
2022/11/20 04:03:01;;;;;;;18.60;9.13;;;;;;;3.84;47.37;101245.97;7390225;19;20462;-63
2022/11/20 04:05:27;;;;;;;19.40;8.75;;;;;;;3.80;47.30;101247.63;7390688;19;20404;-64
2022/11/20 04:07:53;;;;;;;18.40;8.02;;;;;;;3.87;47.20;101239.97;7390681;19;20007;-63
2022/11/20 04:10:19;;;;;;;15.68;8.35;;;;;;;3.85;47.28;101244.88;7389374;19;20141;-64
2022/11/20 04:12:45;;;;;;;16.80;8.52;;;;;;;3.84;47.35;101248.69;7388595;19;20339;-63
2022/11/20 04:15:10;;;;;;;15.95;8.27;;;;;;;3.87;47.43;101234.56;7391067;19;20327;-63
2022/11/20 04:17:36;;;;;;;15.85;8.00;;;;;;;3.77;47.76;101240.91;7388033;19;20542;-63
2022/11/20 04:20:02;;;;;;;14.82;7.82;;;;;;;3.81;47.68;101230.34;7388605;19;19999;-62
2022/11/20 04:22:28;;;;;;;16.52;8.35;;;;;;;3.89;47.50;101232.41;7388523;19;20355;-63
2022/11/20 04:24:53;;;;;;;15.45;7.97;;;;;;;4.03;47.28;101214.44;7389336;19;20003;-63
2022/11/20 04:27:19;;;;;;;15.48;8.15;;;;;;;3.96;47.33;101218.59;7389033;19;20463;-63
2022/11/20 04:29:45;;;;;;;15.48;7.60;;;;;;;3.88;47.40;101220.00;7388796;19;20006;-63
2022/11/20 04:32:10;;;;;;;16.08;7.78;;;;;;;3.96;46.83;101240.19;7390533;19;20014;-63
2022/11/20 04:34:36;;;;;;;14.13;7.43;;;;;;;3.89;47.17;101240.53;7389640;19;20506;-63
2022/11/20 04:37:02;;;;;;;14.85;7.63;;;;;;;3.84;47.02;101230.56;7388975;19;20458;-63
2022/11/20 04:39:27;;;;;;;16.13;7.35;;;;;;;3.75;47.34;101228.75;7388424;19;19995;-63
2022/11/20 04:42:28;;;;;;;13.40;7.13;;;;;;;3.78;46.93;101230.91;7388424;19;20002;-63
2022/11/20 04:44:39;;;;;;;16.33;7.30;;;;;;;3.74;47.01;101238.78;7391404;19;20003;-63
2022/11/20 04:47:04;;;;;;;13.95;7.35;;;;;;;3.71;47.11;101233.94;7396621;19;20001;-64
2022/11/20 04:49:31;;;;;;;15.45;7.40;;;;;;;3.89;46.67;101227.03;7395143;19;20007;-64
2022/11/20 04:51:57;;;;;;;13.27;7.07;;;;;;;3.96;46.44;101226.69;7396703;19;20002;-63
2022/11/20 04:54:23;;;;;;;15.90;6.90;;;;;;;3.88;46.38;101223.50;7397241;19;20006;-63
2022/11/20 04:56:50;;;;;;;15.50;7.53;;;;;;;3.81;46.41;101219.53;7395650;19;20787;-62
2022/11/20 04:59:16;;;;;;;16.30;7.22;;;;;;;3.87;46.49;101229.19;7395593;19;20481;-68
2022/11/20 05:01:42;;;;;;;13.07;6.82;;;;;;;3.79;46.71;101229.81;7396526;19;20032;-68
2022/11/20 05:04:08;;;;;;;13.68;7.25;;;;;;;3.81;46.60;101227.63;7395974;19;20006;-67
2022/11/20 05:06:33;;;;;;;13.35;6.90;;;;;;;3.90;46.50;101226.75;7395714;19;20010;-67
2022/11/20 05:09:00;;;;;;;14.02;7.20;;;;;;;3.87;46.61;101223.78;7394710;19;20367;-67
2022/11/20 05:11:28;;;;;;;13.23;7.00;;;;;;;3.80;46.73;101221.41;7397157;19;20027;-65
2022/11/20 05:13:55;;;;;;;15.27;7.28;;;;;;;3.80;46.82;101224.09;7396285;19;20436;-66
2022/11/20 05:16:23;;;;;;;18.95;8.18;;;;;;;3.82;46.76;101215.72;7396027;19;20010;-65
2022/11/20 05:18:50;;;;;;;14.43;7.32;;;;;;;3.82;46.57;101219.25;7395807;19;20006;-65
2022/11/20 05:21:17;;;;;;;15.98;6.90;;;;;;;3.80;46.64;101218.72;7396616;19;20014;-65
2022/11/20 05:23:43;;;;;;;13.40;7.10;;;;;;;3.83;46.54;101214.66;7396159;19;20007;-64
2022/11/20 05:26:14;;;;;;;13.55;7.20;;;;;;;3.87;46.56;101216.50;7393837;19;20070;-64
2022/11/20 05:28:40;;;;;;;15.95;7.43;;;;;;;3.89;46.68;101208.91;7395574;19;20245;-65
2022/11/20 05:31:07;;;;;;;13.20;6.68;;;;;;;4.01;46.54;101205.81;7392325;19;20011;-56
2022/11/20 05:33:34;;;;;;;14.05;7.13;;;;;;;3.95;46.60;101200.75;7395514;19;19998;-55
2022/11/20 05:36:01;;;;;;;13.10;6.80;;;;;;;3.87;46.62;101204.88;7395374;19;20111;-56
2022/11/20 05:38:27;;;;;;;13.77;6.95;;;;;;;3.84;46.53;101211.66;7390889;19;20359;-55
2022/11/20 05:40:52;;;;;;;13.75;6.57;;;;;;;3.87;46.66;101205.69;7393321;19;20474;-56
2022/11/20 05:43:18;;;;;;;13.15;6.72;;;;;;;3.86;46.72;101208.69;7395183;19;20002;-56
2022/11/20 05:45:52;;;;;;;13.77;7.30;;;;;;;3.76;47.02;101206.09;7395081;19;19995;-55
2022/11/20 05:48:18;;;;;;;12.93;6.68;;;;;;;3.74;46.99;101200.16;7394076;19;20019;-56
2022/11/20 05:50:44;;;;;;;15.68;7.85;;;;;;;3.73;47.02;101204.75;7393587;19;20002;-55
2022/11/20 05:53:09;;;;;;;14.95;7.22;;;;;;;3.91;46.66;101203.22;7394807;19;20360;-55
2022/11/20 05:55:35;;;;;;;13.98;7.15;;;;;;;3.86;46.95;101195.19;7393995;19;20194;-56
2022/11/20 05:58:00;;;;;;;14.18;7.05;;;;;;;4.00;46.82;101203.41;7392435;19;20351;-56
2022/11/20 06:00:26;;;;;;;15.70;6.85;;;;;;;3.83;46.90;101204.63;7392890;19;19997;-55
2022/11/20 06:02:52;;;;;;;14.02;7.13;;;;;;;3.83;47.05;101198.44;7394560;19;20002;-56
2022/11/20 06:05:17;;;;;;;13.85;7.15;;;;;;;3.81;47.25;101197.94;7394855;19;20006;-56
2022/11/20 06:07:43;;;;;;;14.20;7.47;;;;;;;3.91;46.99;101184.31;7393939;19;20005;-56
2022/11/20 06:10:09;;;;;;;15.93;7.88;;;;;;;3.94;47.12;101182.94;7392491;19;19991;-57
2022/11/20 06:12:35;;;;;;;15.98;7.85;;;;;;;3.89;47.29;101179.19;7393467;19;20011;-57
2022/11/20 06:15:01;;;;;;;13.20;7.10;;;;;;;3.83;47.19;101176.84;7392389;19;20462;-56
2022/11/20 06:17:26;;;;;;;14.70;7.40;;;;;;;3.80;47.33;101177.41;7392831;19;19998;-56
2022/11/20 06:19:52;;;;;;;17.40;7.13;;;;;;;3.77;47.57;101168.00;7393032;19;20001;-56
2022/11/20 06:22:18;;;;;;;14.43;6.82;;;;;;;3.77;47.30;101172.56;7392812;19;19991;-55
2022/11/20 06:24:43;;;;;;;13.75;7.20;;;;;;;3.70;47.64;101187.25;7393894;19;19999;-56
2022/11/20 06:27:09;;;;;;;18.02;8.43;;;;;;;3.72;47.49;101170.75;7392294;19;20005;-56
2022/11/20 06:29:34;;;;;;;18.20;8.90;;;;;;;3.70;47.54;101171.03;7392138;19;20024;-56
2022/11/20 06:32:01;;;;;;;17.92;8.60;;;;;;;3.83;47.09;101176.84;7393853;19;19998;-56
2022/11/20 06:34:26;;;;;;;16.08;8.80;;;;;;;3.82;47.31;101175.22;7394002;19;19998;-56
2022/11/20 06:36:52;;;;;;;15.43;8.38;;;;;;;3.83;47.19;101179.53;7392336;19;20375;-55
2022/11/20 06:39:18;;;;;;;15.93;9.13;;;;;;;3.82;47.41;101186.03;7393078;19;20030;-56
2022/11/20 06:41:43;;;;;;;15.93;8.65;;;;;;;3.82;47.38;101180.63;7391497;19;20475;-57
2022/11/20 06:44:09;;;;;;;18.15;8.70;;;;;;;3.81;47.22;101173.63;7391321;19;20007;-56
2022/11/20 06:46:35;;;;;;;15.30;8.25;;;;;;;3.86;47.06;101181.69;7392956;19;20426;-56
2022/11/20 06:49:00;;;;;;;12.88;7.03;;;;;;;3.73;47.29;101172.34;7392730;19;20009;-56
2022/11/20 06:51:26;;;;;;;15.48;6.75;;;;;;;3.72;47.27;101170.75;7393319;19;20031;-56
2022/11/20 06:53:53;;;;;;;13.20;7.18;;;;;;;3.64;47.35;101174.88;7392582;19;20116;-54
2022/11/20 06:56:18;;;;;;;15.00;6.55;;;;;;;3.74;47.02;101168.56;7392144;19;20343;-53
2022/11/20 06:58:44;;;;;;;13.18;6.97;;;;;;;3.69;47.32;101155.91;7390518;19;20025;-56
2022/11/20 07:01:12;;;;;;;14.80;7.30;;;;;;;3.64;47.21;101147.06;7391182;19;20003;-54
2022/11/20 07:03:38;;;;;;;14.52;7.18;;;;;;;3.65;47.13;101151.38;7392697;19;20629;-55
2022/11/20 07:06:05;;;;;;;13.93;7.05;;;;;;;3.68;46.99;101148.91;7393072;19;19995;-55
2022/11/20 07:08:31;;;;;;;12.63;7.03;;;;;;;3.62;47.11;101165.44;7388913;19;20477;-56
2022/11/20 07:10:59;;;;;;;13.73;6.53;;;;;;;3.62;47.12;101171.66;7390657;19;20003;-55
2022/11/20 07:13:25;;;;;;;14.68;6.70;;;;;;;3.73;46.82;101168.84;7390427;19;20018;-55
2022/11/20 07:15:51;;;;;;;13.27;6.78;;;;;;;3.77;46.74;101177.97;7391909;19;20007;-55
2022/11/20 07:18:17;;;;;;;12.95;6.85;;;;;;;3.76;46.69;101174.47;7391246;19;20017;-55
2022/11/20 07:20:42;;;;;;;15.23;7.63;;;;;;;3.73;46.46;101183.16;7391006;19;20014;-55
2022/11/20 07:23:08;;;;;;;13.77;6.93;;;;;;;3.66;46.93;101175.38;7391830;19;19995;-55
2022/11/20 07:25:34;;;;;;;12.25;6.55;;;;;;;3.65;46.91;101170.25;7391410;19;20088;-56
2022/11/20 07:28:00;;;;;;;13.15;7.05;;;;;;;3.61;47.20;101177.34;7391263;19;20011;-55
2022/11/20 07:30:29;;;;;;;13.75;6.97;;;;;;;3.59;46.80;101182.22;7390368;19;20398;-54
2022/11/20 07:32:56;;;;;;;16.27;7.43;;;;;;;3.59;46.99;101169.53;7389995;19;20002;-54
2022/11/20 07:35:23;;;;;;;13.95;7.32;;;;;;;3.66;46.88;101171.88;7391497;19;20002;-56
2022/11/20 07:37:49;;;;;;;14.77;7.20;;;;;;;3.60;46.78;101171.13;7389846;19;20003;-54
2022/11/20 07:40:16;;;;;;;15.07;7.45;;;;;;;3.66;46.50;101177.28;7390103;19;20387;-55
2022/11/20 07:42:49;;;;;;;15.30;6.90;;;;;;;3.53;46.93;101168.75;7391435;19;20007;-54
2022/11/20 07:45:16;;;;;;;25.00;7.53;;;;;;;3.58;46.80;101170.59;7389198;19;20003;-54
2022/11/20 07:47:41;;;;;;;17.02;7.43;;;;;;;3.60;46.66;101164.91;7389056;19;20003;-55
2022/11/20 07:50:08;;;;;;;15.43;7.65;;;;;;;3.63;46.54;101173.25;7388095;19;20009;-55
2022/11/20 07:52:33;;;;;;;14.07;6.80;;;;;;;3.74;46.27;101168.56;7389634;19;20336;-56
2022/11/20 07:54:59;;;;;;;14.70;7.57;;;;;;;3.71;46.47;101169.94;7390599;19;19994;-59
2022/11/20 07:57:25;;;;;;;16.42;7.40;;;;;;;3.70;46.37;101162.94;7389630;19;20440;-55
2022/11/20 07:59:50;;;;;;;13.70;7.30;;;;;;;3.69;46.36;101166.72;7390597;19;19998;-55
2022/11/20 08:02:16;;;;;;;14.38;7.00;;;;;;;3.65;46.43;101160.28;7390515;19;20021;-55
2022/11/20 08:04:42;;;;;;;18.50;8.00;;;;;;;3.49;46.54;101166.91;7391693;19;20037;-54
2022/11/20 08:07:07;;;;;;;16.55;7.88;;;;;;;3.50;46.57;101173.91;7389583;19;19991;-55
2022/11/20 08:09:33;;;;;;;16.00;8.00;;;;;;;3.57;46.69;101174.41;7390304;19;19999;-54
2022/11/20 08:14:49;;;;;;;14.43;7.82;;;;;;;3.64;46.23;101184.88;7390832;19;20014;-56
2022/11/20 08:17:15;;;;;;;14.57;7.80;;;;;;;3.68;46.35;101185.91;7389125;19;19994;-56
2022/11/20 08:19:40;;;;;;;17.05;8.50;;;;;;;3.81;46.15;101179.81;7389707;19;20409;-55
2022/11/20 08:22:06;;;;;;;14.93;8.35;;;;;;;3.90;45.83;101178.13;7397569;19;20070;-55
2022/11/20 08:24:32;;;;;;;16.55;7.90;;;;;;;3.92;45.81;101174.31;7397843;19;20006;-55
2022/11/20 08:26:59;;;;;;;15.05;7.85;;;;;;;3.97;45.78;101172.38;7396926;19;19998;-55
2022/11/20 08:29:26;;;;;;;16.55;8.35;;;;;;;4.11;45.56;101169.78;7394881;19;20002;-55
2022/11/20 08:31:52;;;;;;;15.63;8.10;;;;;;;4.11;45.69;101180.59;7394377;19;20006;-56
2022/11/20 08:34:17;;;;;;;17.52;8.43;;;;;;;4.05;45.68;101174.44;7395638;19;20025;-56
2022/11/20 08:36:43;;;;;;;17.98;8.70;;;;;;;4.12;45.55;101184.91;7396694;19;20068;-54
2022/11/20 08:39:11;;;;;;;16.13;8.32;;;;;;;4.03;45.70;101182.00;7395500;19;20431;-51
2022/11/20 08:41:37;;;;;;;18.42;8.77;;;;;;;3.94;45.73;101181.06;7394808;19;20069;-53
2022/11/20 08:44:04;;;;;;;17.67;8.85;;;;;;;3.92;45.68;101191.34;7396888;19;20016;-53
2022/11/20 08:46:39;;;;;;;19.77;9.23;;;;;;;4.00;45.46;101187.19;7396044;19;20126;-54
2022/11/20 08:49:11;;;;;;;18.63;8.95;;;;;;;3.97;45.60;101182.34;7395084;19;20006;-53
2022/11/20 08:51:38;;;;;;;16.35;9.07;;;;;;;3.99;45.53;101181.00;7396609;19;20002;-54
2022/11/20 08:54:05;;;;;;;16.20;8.93;;;;;;;4.05;45.31;101181.72;7396828;19;20003;-55
2022/11/20 08:56:31;;;;;;;14.93;8.35;;;;;;;4.02;45.47;101179.59;7396060;19;20029;-54
2022/11/20 08:58:56;;;;;;;15.23;8.65;;;;;;;4.09;45.29;101186.28;7396585;19;20002;-53
2022/11/20 09:01:23;;;;;;;16.73;9.18;;;;;;;4.05;45.29;101182.56;7397351;19;20031;-55
2022/11/20 09:03:49;;;;;;;15.18;8.57;;;;;;;4.07;45.14;101182.25;7395421;19;20010;-54
2022/11/20 09:06:15;;;;;;;17.17;9.18;;;;;;;3.99;45.33;101181.00;7394283;19;20002;-54
2022/11/20 09:08:42;;;;;;;15.98;8.68;;;;;;;4.07;45.40;101184.94;7394159;19;19998;-54
2022/11/20 09:11:08;;;;;;;15.88;8.48;;;;;;;4.01;45.48;101188.81;7394127;19;19994;-52
2022/11/20 09:13:35;;;;;;;16.02;8.43;;;;;;;4.11;45.31;101188.69;7395207;19;20010;-51
2022/11/20 09:16:07;;;;;;;14.23;8.25;;;;;;;4.08;45.55;101189.25;7394268;19;20003;-53
2022/11/20 09:18:35;;;;;;;17.02;9.10;;;;;;;4.11;45.41;101187.91;7392936;19;20040;-54
2022/11/20 09:21:04;;;;;;;18.58;9.30;;;;;;;4.06;45.53;101194.16;7394243;19;20080;-55
2022/11/20 09:23:35;;;;;;;16.35;8.13;;;;;;;4.15;45.47;101191.63;7395138;19;20005;-55
2022/11/20 09:26:13;;;;;;;15.93;8.82;;;;;;;4.13;45.47;101185.72;7393896;19;20458;-55
2022/11/20 09:28:39;;;;;;;16.83;9.15;;;;;;;3.99;45.84;101191.00;7393817;19;20017;-56
2022/11/20 09:31:15;;;;;;;17.70;9.10;;;;;;;4.08;45.81;101189.25;7390322;19;20462;-56
2022/11/20 09:33:40;;;;;;;15.00;8.77;;;;;;;4.09;45.66;101180.88;7395405;19;20455;-54
2022/11/20 09:36:06;;;;;;;15.85;8.85;;;;;;;4.12;45.61;101181.38;7393807;19;19998;-55
2022/11/20 09:38:32;;;;;;;16.25;9.35;;;;;;;4.13;45.64;101186.50;7392936;19;20013;-55
2022/11/20 09:41:03;;;;;;;17.63;9.07;;;;;;;4.08;45.70;101184.66;7392599;19;20466;-55
2022/11/20 09:43:54;;;;;;;17.23;9.10;;;;;;;4.00;45.93;101181.78;7394197;19;20072;-55
2022/11/20 09:46:28;;;;;;;17.42;8.73;;;;;;;4.06;45.98;101180.66;7392573;19;19995;-55
2022/11/20 09:49:04;;;;;;;;;;;;;;;4.03;46.17;101182.00;7395496;19;19999;-56
2022/11/20 09:51:52;;;;;;;16.58;8.63;;;;;;;4.02;46.30;101180.44;7392195;19;20367;-55
2022/11/20 09:54:21;;;;;;;17.00;9.30;;;;;;;4.04;46.13;101188.25;7395064;19;20462;-55
2022/11/20 09:56:51;;;;;;;17.35;9.38;;;;;;;3.87;46.67;101186.78;7391306;19;20037;-55
2022/11/20 09:59:42;;;;;;;16.77;9.07;;;;;;;3.74;46.98;101186.63;7392281;19;20058;-54
2022/11/20 10:02:28;;;;;;;20.77;10.18;;;;;;;3.75;47.22;101172.06;7394149;19;20019;-55
2022/11/20 10:05:05;;;;;;;18.10;9.07;;;;;;;3.76;47.28;101174.47;7394293;19;20002;-56
2022/11/20 10:07:41;;;;;;;19.40;10.18;;;;;;;3.78;47.41;101171.50;7390180;19;19991;-56
2022/11/20 10:10:16;;;;;;;17.65;10.10;;;;;;;3.84;47.49;101167.66;7392612;19;20463;-56
2022/11/20 10:12:41;;;;;;;18.83;10.98;;;;;;;3.82;47.32;101172.53;7392273;19;19998;-56
2022/11/20 10:15:34;;;;;;;22.65;11.00;;;;;;;3.81;47.50;101169.03;7394254;19;20008;-56
2022/11/20 10:18:14;;;;;;;19.88;11.35;;;;;;;3.83;47.57;101168.75;7391679;19;20021;-56
2022/11/20 10:21:12;;;;;;;19.83;11.10;;;;;;;3.78;48.19;101169.59;7392828;19;20009;-56
2022/11/20 10:23:53;;;;;;;20.20;11.57;;;;;;;3.80;47.87;101169.31;7391062;19;20474;-57
2022/11/20 10:26:30;;;;;;;21.38;11.55;;;;;;;3.84;47.96;101171.16;7396462;19;20016;-55
2022/11/20 10:29:14;;;;;;;19.42;11.00;;;;;;;3.88;47.79;101160.59;7389279;19;20032;-56
2022/11/20 10:31:54;;;;;;;20.98;11.27;;;;;;;3.83;47.85;101160.63;7390817;19;20035;-56
2022/11/20 10:34:30;;;;;;;17.73;10.30;;;;;;;3.91;47.77;101162.72;7391220;19;19999;-55
2022/11/20 10:37:03;;;;;;;19.70;10.85;;;;;;;3.89;47.66;101159.50;7393185;19;20022;-55
2022/11/20 10:39:47;;;;;;;19.23;10.73;;;;;;;3.89;47.97;101149.50;7391907;19;20366;-59
2022/11/20 10:42:17;;;;;;;27.83;11.23;;;;;;;3.70;48.15;101146.75;7389596;19;20006;-52
2022/11/20 10:45:01;;;;;;;16.52;10.10;;;;;;;3.76;48.13;101154.78;7391434;19;20019;-52
2022/11/20 10:47:29;;;;;;;17.73;10.30;;;;;;;3.74;48.03;101156.94;7390956;19;20002;-52
2022/11/20 10:50:00;;;;;;;19.90;11.32;;;;;;;3.85;47.83;101144.94;7389218;19;20594;-51
2022/11/20 10:52:45;;;;;;;19.13;10.27;;;;;;;3.94;47.83;101140.53;7390927;19;20478;-52
2022/11/20 10:55:35;;;;;;;18.05;9.65;;;;;;;3.92;47.88;101142.72;7391067;19;20025;-56
2022/11/20 10:58:23;;;;;;;18.50;10.90;;;;;;;3.93;47.88;101147.03;7390422;19;20010;-53
2022/11/20 11:00:48;;;;;;;15.73;9.82;;;;;;;3.97;47.67;101144.53;7391128;19;20009;-53
2022/11/20 11:03:25;;;;;;;16.70;9.15;;;;;;;4.10;47.69;101141.16;7393142;19;20006;-53
2022/11/20 11:05:59;;;;;;;17.40;9.98;;;;;;;4.04;47.46;101135.00;7390596;19;20371;-54
2022/11/20 11:08:28;;;;;;;;;;;;;;;4.03;47.84;101138.78;7391222;19;20019;-55
2022/11/20 11:10:57;;;;;;;17.75;9.45;;;;;;;3.97;47.34;101134.56;7387686;19;20019;-53
2022/11/20 11:13:24;;;;;;;18.27;9.05;;;;;;;3.98;47.55;101135.34;7392937;19;20344;-54
2022/11/20 11:15:50;;;;;;;15.63;9.23;;;;;;;3.99;47.42;101132.38;7389124;19;20014;-52
2022/11/20 11:18:31;;;;;;;18.52;9.32;;;;;;;3.97;47.52;101134.56;7390217;19;20007;-54
2022/11/20 11:21:00;;;;;;;16.75;9.73;;;;;;;4.00;47.48;101136.66;7390566;19;20097;-52
2022/11/20 11:23:32;;;;;;;18.27;9.48;;;;;;;4.08;47.36;101133.31;7391960;19;20017;-53
2022/11/20 11:25:59;;;;;;;16.67;9.43;;;;;;;4.12;47.23;101120.06;7390953;19;20006;-52
2022/11/20 11:28:27;;;;;;;16.38;8.65;;;;;;;4.24;47.06;101123.16;7390742;19;19999;-52
2022/11/20 11:31:01;;;;;;;15.35;8.60;;;;;;;4.21;47.01;101122.94;7389685;19;20010;-53
2022/11/20 11:33:33;;;;;;;16.05;9.38;;;;;;;4.13;47.10;101118.16;7391122;19;20010;-51
2022/11/20 11:36:01;;;;;;;17.67;8.95;;;;;;;4.13;47.00;101116.25;7391178;19;20360;-53